Time;durP1;ratioP1;P1;durP2;ratioP2;P2;SDS_P1;SDS_P2;PMS_P1;PMS_P2;Temp;Humidity;BMP_temperature;BMP_pressure;BME280_temperature;BME280_humidity;BME280_pressure;Samples;Min_cycle;Max_cycle;Signal;HPM_P1;HPM_P2
2022/07/16 00:03:23;;;;;;;6.07;3.30;;;24.50;94.20;;;;;;4939581;29;20186;-72
2022/07/16 00:05:49;;;;;;;7.30;3.53;;;24.50;94.10;;;;;;4929684;29;20546;-72
2022/07/16 00:08:14;;;;;;;6.53;3.08;;;24.50;93.60;;;;;;4924265;29;20091;-72
2022/07/16 00:10:40;;;;;;;6.63;3.80;;;24.70;93.20;;;;;;4933207;29;20028;-72
2022/07/16 00:13:06;;;;;;;6.68;3.50;;;24.70;92.80;;;;;;4935084;29;20034;-72
2022/07/16 00:15:31;;;;;;;4.53;2.80;;;24.70;92.70;;;;;;4926355;29;20122;-72
2022/07/16 00:20:43;;;;;;;4.10;2.47;;;24.70;92.80;;;;;;4931208;29;20100;-72
2022/07/16 00:23:08;;;;;;;6.38;3.50;;;24.70;92.90;;;;;;4934286;29;20059;-72
2022/07/16 00:25:34;;;;;;;6.43;3.00;;;24.70;92.90;;;;;;4950442;28;20057;-72
2022/07/16 00:28:01;;;;;;;6.57;3.70;;;24.70;92.80;;;;;;4935636;29;20035;-72
2022/07/16 00:30:27;;;;;;;4.75;2.90;;;24.80;92.80;;;;;;4932407;28;20407;-72
2022/07/16 00:32:53;;;;;;;6.05;3.00;;;24.70;93.10;;;;;;4934313;29;20103;-72
2022/07/16 00:35:18;;;;;;;4.82;2.95;;;24.80;92.90;;;;;;4927524;29;20471;-72
2022/07/16 00:37:44;;;;;;;7.93;3.28;;;24.70;92.90;;;;;;4927339;29;20036;-72
2022/07/16 00:40:10;;;;;;;4.82;3.00;;;24.70;93.00;;;;;;4937251;29;20036;-72
2022/07/16 00:42:36;;;;;;;7.30;3.95;;;24.70;93.00;;;;;;4932508;29;20086;-72
2022/07/16 00:45:02;;;;;;;5.32;2.95;;;24.60;93.20;;;;;;4935632;28;20032;-72
2022/07/16 00:47:27;;;;;;;8.77;3.17;;;24.60;93.30;;;;;;4930800;29;20031;-72
2022/07/16 00:49:53;;;;;;;6.60;3.30;;;24.50;93.50;;;;;;4925690;29;20519;-72
2022/07/16 00:52:18;;;;;;;5.72;2.60;;;24.50;93.50;;;;;;4933386;29;20463;-72
2022/07/16 00:54:44;;;;;;;6.13;2.88;;;24.50;93.50;;;;;;4927741;29;20099;-72
2022/07/16 00:57:10;;;;;;;5.05;2.88;;;24.40;93.40;;;;;;4930155;29;20039;-72
2022/07/16 00:59:35;;;;;;;5.85;3.38;;;24.50;93.40;;;;;;4943756;28;20106;-72
2022/07/16 01:02:01;;;;;;;5.15;2.75;;;24.30;93.40;;;;;;4954595;28;20050;-72
2022/07/16 01:04:27;;;;;;;5.45;3.25;;;24.40;93.20;;;;;;4963088;28;20465;-72
2022/07/16 01:06:53;;;;;;;5.15;3.50;;;24.40;93.30;;;;;;4963645;28;20038;-72
2022/07/16 01:09:20;;;;;;;5.75;3.47;;;24.40;93.40;;;;;;4975321;28;20046;-72
2022/07/16 01:11:47;;;;;;;5.63;3.58;;;24.20;93.80;;;;;;4968555;28;20034;-72
2022/07/16 01:14:14;;;;;;;6.72;3.35;;;24.10;94.10;;;;;;4971625;28;20035;-71
2022/07/16 01:16:40;;;;;;;4.55;2.95;;;24.00;94.20;;;;;;4965627;28;20081;-72
2022/07/16 01:19:09;;;;;;;5.22;3.22;;;24.00;94.60;;;;;;4983445;28;20026;-72
2022/07/16 01:21:35;;;;;;;7.07;3.47;;;23.80;94.90;;;;;;4971635;28;20050;-72
2022/07/16 01:24:00;;;;;;;6.85;3.30;;;23.70;95.20;;;;;;4971674;28;20030;-72
2022/07/16 01:26:26;;;;;;;5.13;3.10;;;23.60;95.30;;;;;;4966691;28;20501;-72
2022/07/16 01:28:52;;;;;;;9.10;3.60;;;23.60;95.10;;;;;;4972253;28;20030;-72
2022/07/16 01:31:18;;;;;;;4.55;3.13;;;23.60;95.50;;;;;;4977668;28;20038;-72
2022/07/16 01:33:43;;;;;;;4.30;2.92;;;23.60;95.40;;;;;;4970401;28;20040;-72
2022/07/16 01:36:11;;;;;;;4.60;3.15;;;23.60;95.30;;;;;;4969878;28;20106;-72
2022/07/16 01:38:42;;;;;;;4.80;3.50;;;23.50;95.60;;;;;;4971283;28;20049;-72
2022/07/16 01:41:08;;;;;;;5.28;3.90;;;23.50;95.70;;;;;;4973305;28;20520;-71
2022/07/16 01:43:34;;;;;;;6.25;3.50;;;23.30;95.90;;;;;;4975160;28;20022;-71
2022/07/16 01:46:00;;;;;;;4.88;3.45;;;23.30;95.90;;;;;;4981117;28;20470;-72
2022/07/16 01:48:26;;;;;;;4.95;3.15;;;23.30;96.10;;;;;;4967990;28;20035;-72
2022/07/16 01:50:53;;;;;;;6.20;3.40;;;23.20;96.20;;;;;;4975182;28;20042;-72
2022/07/16 01:53:19;;;;;;;7.78;3.67;;;23.20;96.10;;;;;;4975238;28;20042;-72
2022/07/16 01:55:45;;;;;;;5.50;3.70;;;23.20;96.10;;;;;;4969803;28;20030;-72
2022/07/16 01:58:13;;;;;;;5.43;3.75;;;23.10;96.30;;;;;;4965099;28;20118;-72
2022/07/16 02:00:40;;;;;;;6.00;3.60;;;23.20;96.20;;;;;;4984336;28;20457;-72
2022/07/16 02:03:07;;;;;;;5.47;3.40;;;23.20;96.20;;;;;;4987367;28;20055;-72
2022/07/16 02:05:33;;;;;;;8.25;3.83;;;23.10;96.20;;;;;;4974775;28;20047;-72
2022/07/16 02:07:59;;;;;;;6.45;3.60;;;23.10;96.20;;;;;;4966807;28;20027;-72
2022/07/16 02:10:25;;;;;;;5.57;3.83;;;23.10;96.50;;;;;;4991266;28;20030;-72
2022/07/16 02:12:51;;;;;;;8.85;4.57;;;23.00;96.80;;;;;;4985230;28;20054;-72
2022/07/16 02:15:16;;;;;;;5.65;3.58;;;22.90;97.20;;;;;;4966753;28;20041;-72
2022/07/16 02:17:42;;;;;;;5.65;4.35;;;22.80;97.30;;;;;;4970317;28;20545;-71
2022/07/16 02:20:10;;;;;;;5.18;3.60;;;22.70;97.50;;;;;;4975437;28;20031;-72
2022/07/16 02:22:36;;;;;;;5.57;3.55;;;22.80;97.30;;;;;;4970697;28;20098;-72
2022/07/16 02:25:03;;;;;;;5.88;3.72;;;22.80;97.40;;;;;;4966272;28;20402;-72
2022/07/16 02:27:28;;;;;;;7.25;3.20;;;22.80;97.10;;;;;;4969773;28;20070;-71
2022/07/16 02:29:54;;;;;;;5.53;3.75;;;22.80;97.20;;;;;;4979800;28;20108;-72
2022/07/16 02:32:20;;;;;;;5.28;4.13;;;22.90;97.00;;;;;;4968681;28;20122;-72
2022/07/16 02:34:45;;;;;;;5.85;3.55;;;22.80;96.90;;;;;;4971292;28;20042;-72
2022/07/16 02:37:11;;;;;;;6.07;3.75;;;22.90;96.90;;;;;;4965562;28;20038;-72
2022/07/16 02:39:37;;;;;;;8.15;3.90;;;22.90;97.10;;;;;;4970350;28;20118;-72
2022/07/16 02:42:03;;;;;;;7.05;3.55;;;22.80;97.30;;;;;;4970895;28;20038;-72
2022/07/16 02:44:28;;;;;;;6.72;4.68;;;22.70;97.60;;;;;;4965913;28;20117;-72
2022/07/16 02:46:54;;;;;;;6.35;4.47;;;22.70;97.80;;;;;;4974108;28;20018;-72
2022/07/16 02:49:20;;;;;;;6.07;4.13;;;22.60;98.00;;;;;;4974423;28;20027;-72
2022/07/16 02:51:45;;;;;;;6.00;4.13;;;22.60;98.10;;;;;;4970842;28;20035;-72
2022/07/16 02:54:11;;;;;;;5.25;3.90;;;22.50;98.10;;;;;;4970644;28;20041;-71
2022/07/16 02:56:37;;;;;;;6.38;4.22;;;22.50;98.10;;;;;;4974454;28;20117;-72
2022/07/16 02:59:03;;;;;;;5.60;3.72;;;22.60;98.00;;;;;;4970902;28;20026;-71
2022/07/16 03:01:28;;;;;;;6.47;3.78;;;22.60;97.90;;;;;;4974268;28;20066;-71
2022/07/16 03:03:54;;;;;;;6.28;3.85;;;22.60;98.10;;;;;;4957682;28;20047;-71
2022/07/16 03:06:20;;;;;;;8.50;4.28;;;22.60;98.00;;;;;;4959683;28;20369;-71
2022/07/16 03:08:46;;;;;;;5.97;4.30;;;22.60;97.90;;;;;;4966990;28;20026;-71
2022/07/16 03:11:12;;;;;;;8.98;3.95;;;22.70;97.70;;;;;;4974361;28;20118;-71
2022/07/16 03:13:38;;;;;;;7.80;4.18;;;22.70;97.50;;;;;;4965638;28;20030;-71
2022/07/16 03:16:04;;;;;;;5.75;3.92;;;22.60;97.80;;;;;;4968487;28;20034;-71
2022/07/16 03:18:29;;;;;;;7.65;4.00;;;22.60;97.60;;;;;;4965108;28;20065;-70
2022/07/16 03:20:55;;;;;;;6.00;4.00;;;22.70;97.30;;;;;;4957480;28;20074;-71
2022/07/16 03:23:21;;;;;;;5.93;3.78;;;22.70;97.40;;;;;;4964551;28;20039;-71
2022/07/16 03:25:46;;;;;;;6.80;4.53;;;22.70;97.70;;;;;;4965221;28;20532;-71
2022/07/16 03:28:12;;;;;;;5.35;4.07;;;22.60;98.20;;;;;;4976935;28;20122;-71
2022/07/16 03:30:38;;;;;;;6.60;3.78;;;22.40;98.70;;;;;;4971356;28;20026;-71
2022/07/16 03:33:03;;;;;;;4.80;3.72;;;22.40;98.80;;;;;;4969301;28;20030;-71
2022/07/16 03:35:29;;;;;;;5.75;4.05;;;22.40;99.00;;;;;;4969510;28;20035;-71
2022/07/16 03:40:40;;;;;;;;;;;22.30;99.00;;;;;;4968015;28;20250;-72
2022/07/16 03:43:05;;;;;;;7.03;4.57;;;22.40;99.00;;;;;;4966344;28;20020;-72
2022/07/16 03:45:31;;;;;;;7.53;3.80;;;22.40;99.20;;;;;;4963069;28;20035;-71
2022/07/16 03:47:57;;;;;;;6.68;3.97;;;22.20;99.40;;;;;;4965795;28;20039;-71
2022/07/16 03:50:23;;;;;;;11.20;4.60;;;22.20;99.50;;;;;;4969487;28;20031;-71
2022/07/16 03:52:49;;;;;;;5.65;4.15;;;22.20;99.60;;;;;;4964008;28;20023;-71
2022/07/16 03:55:15;;;;;;;7.22;4.18;;;22.20;99.60;;;;;;4967162;28;20060;-70
2022/07/16 03:57:42;;;;;;;7.75;4.50;;;22.20;99.60;;;;;;4967602;28;20030;-71
2022/07/16 04:00:09;;;;;;;6.90;4.05;;;22.30;99.20;;;;;;4964392;28;21498;-71
2022/07/16 04:02:35;;;;;;;8.25;4.07;;;22.40;98.90;;;;;;4968287;28;20521;-71
2022/07/16 04:05:00;;;;;;;9.10;4.47;;;22.40;98.90;;;;;;4963089;28;20042;-71
2022/07/16 04:07:26;;;;;;;6.60;4.50;;;22.40;99.00;;;;;;4966020;28;20241;-71
2022/07/16 04:09:52;;;;;;;7.00;4.40;;;22.30;99.00;;;;;;4965303;28;20038;-71
2022/07/16 04:12:20;;;;;;;5.57;4.30;;;22.30;99.20;;;;;;4962901;28;20045;-71
2022/07/16 04:14:46;;;;;;;8.32;3.92;;;22.30;99.20;;;;;;4957848;28;20035;-71
2022/07/16 04:17:12;;;;;;;6.40;4.68;;;22.30;99.20;;;;;;4962646;28;20486;-71
2022/07/16 04:19:37;;;;;;;4.93;3.42;;;22.30;99.30;;;;;;4965586;28;20367;-71
2022/07/16 04:22:03;;;;;;;9.18;4.10;;;22.30;99.10;;;;;;4965834;28;20046;-71
2022/07/16 04:24:29;;;;;;;6.55;4.25;;;22.30;99.20;;;;;;4968132;28;20034;-71
2022/07/16 04:26:54;;;;;;;7.00;4.40;;;22.20;99.10;;;;;;4966820;28;20027;-71
2022/07/16 04:29:20;;;;;;;5.93;3.80;;;22.40;98.90;;;;;;4964564;28;20034;-71
2022/07/16 04:31:45;;;;;;;6.30;3.70;;;22.40;98.70;;;;;;4968815;28;20142;-72
2022/07/16 04:34:11;;;;;;;6.82;4.13;;;22.50;98.50;;;;;;4965287;28;20093;-71
2022/07/16 04:36:37;;;;;;;6.60;4.50;;;22.60;98.40;;;;;;4974008;28;20049;-72
2022/07/16 04:39:03;;;;;;;6.47;4.43;;;22.60;98.40;;;;;;4966658;28;20133;-71
2022/07/16 04:41:28;;;;;;;7.40;4.30;;;22.70;98.10;;;;;;4963811;28;20498;-71
2022/07/16 04:43:54;;;;;;;5.90;4.38;;;22.80;97.80;;;;;;4966317;28;20620;-72
2022/07/16 04:46:20;;;;;;;7.43;4.05;;;22.90;97.80;;;;;;4964137;28;20496;-72
2022/07/16 04:48:45;;;;;;;6.13;3.30;;;23.00;97.60;;;;;;4983356;28;20042;-72
2022/07/16 04:51:11;;;;;;;7.88;4.07;;;23.00;97.70;;;;;;4959568;28;20073;-72
2022/07/16 04:53:37;;;;;;;8.07;4.20;;;22.90;97.80;;;;;;4968219;28;20066;-71
2022/07/16 04:56:04;;;;;;;5.85;4.30;;;22.90;97.80;;;;;;4970134;28;20366;-71
2022/07/16 04:58:29;;;;;;;5.80;3.63;;;23.10;97.50;;;;;;4977369;28;20042;-71
2022/07/16 05:00:55;;;;;;;8.75;4.03;;;23.20;97.20;;;;;;4964599;28;20492;-71
2022/07/16 05:03:24;;;;;;;7.38;4.45;;;23.30;97.10;;;;;;4958814;28;20209;-71
2022/07/16 05:05:49;;;;;;;6.05;4.15;;;23.40;96.90;;;;;;4972407;28;20097;-71
2022/07/16 05:08:15;;;;;;;8.90;4.53;;;23.50;97.00;;;;;;4976046;28;20030;-71
2022/07/16 05:10:41;;;;;;;7.82;4.38;;;23.50;96.70;;;;;;4962400;28;20063;-71
2022/07/16 05:13:10;;;;;;;7.82;4.40;;;23.40;96.90;;;;;;4963560;28;20158;-71
2022/07/16 05:15:35;;;;;;;6.47;4.07;;;23.40;97.20;;;;;;4963759;28;20034;-71
2022/07/16 05:18:01;;;;;;;6.88;4.63;;;23.30;97.40;;;;;;4970287;28;20035;-71
2022/07/16 05:20:27;;;;;;;6.10;4.40;;;23.10;97.70;;;;;;4962629;28;20053;-71
2022/07/16 05:22:52;;;;;;;6.68;4.35;;;23.20;97.70;;;;;;4965204;28;20046;-71
2022/07/16 05:25:18;;;;;;;5.38;4.13;;;23.20;97.60;;;;;;4976983;28;20914;-71
2022/07/16 05:27:44;;;;;;;6.43;4.60;;;23.40;97.50;;;;;;4966666;28;20634;-71
2022/07/16 05:30:10;;;;;;;6.88;5.32;;;23.60;97.40;;;;;;4963714;28;20049;-71
2022/07/16 05:32:36;;;;;;;9.90;4.75;;;23.70;97.10;;;;;;4962991;28;20034;-71
2022/07/16 05:35:03;;;;;;;5.80;3.95;;;23.70;97.00;;;;;;4967624;28;20039;-71
2022/07/16 05:37:29;;;;;;;7.45;3.95;;;23.80;96.90;;;;;;4964699;28;20042;-71
2022/07/16 05:39:55;;;;;;;6.18;4.47;;;23.80;97.10;;;;;;4959800;28;20097;-71
2022/07/16 05:42:20;;;;;;;11.02;4.28;;;23.70;97.40;;;;;;4958437;28;20440;-72
2022/07/16 05:44:46;;;;;;;8.02;4.78;;;23.70;97.90;;;;;;4965478;28;20031;-71
2022/07/16 05:47:12;;;;;;;6.88;4.65;;;23.60;98.00;;;;;;4958261;28;20022;-72
2022/07/16 05:49:37;;;;;;;7.47;4.57;;;23.70;97.50;;;;;;4965623;28;20031;-71
2022/07/16 05:52:03;;;;;;;7.47;4.70;;;23.80;97.20;;;;;;4960541;28;20031;-71
2022/07/16 05:54:29;;;;;;;6.85;4.80;;;23.80;97.10;;;;;;4970415;28;20066;-74
2022/07/16 05:56:54;;;;;;;7.60;4.60;;;23.80;97.10;;;;;;4969141;28;20041;-71
2022/07/16 05:59:20;;;;;;;6.68;4.15;;;23.80;97.00;;;;;;4965959;28;20077;-70
2022/07/16 06:01:46;;;;;;;6.18;4.30;;;24.00;96.90;;;;;;4956316;28;20449;-70
2022/07/16 06:04:11;;;;;;;5.95;4.22;;;24.20;97.10;;;;;;4962728;28;20597;-70
2022/07/16 06:06:37;;;;;;;7.28;4.70;;;24.40;96.50;;;;;;4962737;28;20411;-70
2022/07/16 06:09:03;;;;;;;8.18;4.82;;;24.50;96.80;;;;;;4963191;28;20554;-69
2022/07/16 06:11:28;;;;;;;11.35;4.22;;;24.60;96.70;;;;;;4954975;28;20119;-70
2022/07/16 06:13:54;;;;;;;7.60;4.50;;;24.70;96.50;;;;;;4963529;28;20038;-69
2022/07/16 06:16:20;;;;;;;8.13;4.72;;;24.60;96.20;;;;;;4961677;28;20035;-70
2022/07/16 06:18:46;;;;;;;7.35;4.53;;;24.60;96.20;;;;;;4964050;28;20026;-70
2022/07/16 06:21:12;;;;;;;6.95;4.25;;;24.70;96.00;;;;;;4963458;28;20039;-70
2022/07/16 06:23:38;;;;;;;9.73;4.00;;;24.90;96.30;;;;;;4963342;28;20027;-69
2022/07/16 06:26:03;;;;;;;13.15;4.28;;;24.90;95.90;;;;;;4958578;28;20023;-70
2022/07/16 06:28:29;;;;;;;8.00;4.72;;;25.00;96.00;;;;;;4958940;28;20033;-70
2022/07/16 06:30:55;;;;;;;9.40;5.03;;;25.10;95.90;;;;;;4959819;28;20081;-70
2022/07/16 06:33:20;;;;;;;8.82;4.72;;;25.10;95.70;;;;;;4960690;28;20498;-70
2022/07/16 06:35:46;;;;;;;5.25;4.10;;;25.10;96.20;;;;;;4959582;28;20037;-70
2022/07/16 06:38:12;;;;;;;6.68;4.63;;;25.00;95.60;;;;;;4963130;28;20023;-71
2022/07/16 06:40:42;;;;;;;9.07;4.90;;;25.00;95.70;;;;;;4964907;28;20065;-69
2022/07/16 06:43:08;;;;;;;8.00;5.00;;;25.00;95.90;;;;;;4965364;28;20401;-71
2022/07/16 06:45:34;;;;;;;6.70;3.83;;;25.10;95.70;;;;;;4959687;28;20031;-70
2022/07/16 06:47:59;;;;;;;7.72;4.68;;;25.20;95.40;;;;;;4967652;28;20079;-70
2022/07/16 06:50:25;;;;;;;9.70;4.22;;;25.20;95.40;;;;;;4967736;28;20039;-71
2022/07/16 06:52:51;;;;;;;6.75;4.43;;;25.30;95.30;;;;;;4968586;28;20030;-71
2022/07/16 06:55:16;;;;;;;5.25;3.83;;;25.30;95.00;;;;;;4965588;28;20481;-71
2022/07/16 06:57:42;;;;;;;6.25;3.97;;;25.40;95.00;;;;;;4968642;28;20056;-71
2022/07/16 07:00:08;;;;;;;6.63;4.32;;;25.50;94.70;;;;;;4970766;28;20031;-71
2022/07/16 07:02:34;;;;;;;7.18;3.67;;;25.60;94.80;;;;;;4968539;28;20047;-71
2022/07/16 07:05:00;;;;;;;4.82;3.80;;;25.70;94.60;;;;;;4966481;28;20060;-71
2022/07/16 07:07:26;;;;;;;6.28;4.70;;;25.60;94.60;;;;;;4954409;28;20070;-71
2022/07/16 07:09:51;;;;;;;6.78;4.63;;;25.60;94.90;;;;;;4962327;28;20066;-71
2022/07/16 07:12:17;;;;;;;12.38;4.60;;;25.60;95.00;;;;;;4976539;28;20330;-71
2022/07/16 07:14:42;;;;;;;4.93;3.67;;;25.90;95.00;;;;;;4965862;28;20635;-71
2022/07/16 07:17:08;;;;;;;7.70;4.82;;;26.10;95.00;;;;;;4966484;28;20398;-71
2022/07/16 07:19:34;;;;;;;7.10;4.90;;;26.30;94.60;;;;;;4956344;28;20476;-72
2022/07/16 07:22:00;;;;;;;10.38;5.03;;;26.70;94.60;;;;;;4961571;28;20070;-71
2022/07/16 07:24:26;;;;;;;8.52;5.00;;;26.80;93.50;;;;;;4958064;28;20371;-72
2022/07/16 07:26:52;;;;;;;7.50;4.90;;;26.80;93.40;;;;;;4940879;28;20050;-72
2022/07/16 07:29:17;;;;;;;7.63;4.75;;;26.50;93.80;;;;;;4965812;28;20044;-71
2022/07/16 07:31:43;;;;;;;8.98;4.90;;;26.30;93.80;;;;;;4967919;28;20031;-72
2022/07/16 07:34:08;;;;;;;11.73;5.03;;;26.10;94.00;;;;;;4972502;28;20045;-72
2022/07/16 07:36:34;;;;;;;11.20;5.38;;;26.40;93.90;;;;;;4959881;28;20367;-71
2022/07/16 07:39:00;;;;;;;9.40;5.38;;;26.80;93.50;;;;;;4959581;28;20769;-71
2022/07/16 07:41:25;;;;;;;8.68;4.57;;;26.70;93.00;;;;;;4955085;28;20121;-71
2022/07/16 07:43:51;;;;;;;7.82;4.65;;;27.10;93.00;;;;;;4957905;28;20027;-71
2022/07/16 07:46:17;;;;;;;9.95;4.97;;;27.50;92.30;;;;;;4963783;28;20491;-71
2022/07/16 07:48:42;;;;;;;6.57;4.95;;;28.00;92.70;;;;;;4959455;28;20030;-71
2022/07/16 07:51:09;;;;;;;24.30;5.78;;;29.10;91.00;;;;;;4952246;28;20038;-71
2022/07/16 07:53:36;;;;;;;5.70;4.18;;;29.20;91.10;;;;;;4952455;28;20027;-71
2022/07/16 07:56:02;;;;;;;6.97;4.63;;;28.90;90.90;;;;;;4949446;28;20094;-71
2022/07/16 07:58:28;;;;;;;12.55;5.10;;;29.50;91.10;;;;;;4951208;28;20081;-71
2022/07/16 08:00:54;;;;;;;12.55;4.93;;;28.70;91.50;;;;;;4962164;28;20026;-72
2022/07/16 08:03:20;;;;;;;7.75;4.75;;;28.30;91.20;;;;;;4962721;28;20130;-73
2022/07/16 08:05:46;;;;;;;8.98;4.35;;;29.40;90.70;;;;;;4968207;28;20093;-72
2022/07/16 08:08:12;;;;;;;6.47;4.30;;;30.40;89.20;;;;;;4962229;28;20027;-72
2022/07/16 08:10:38;;;;;;;10.43;4.78;;;30.20;89.20;;;;;;4965554;28;20093;-72
2022/07/16 08:13:03;;;;;;;6.72;4.78;;;29.30;90.00;;;;;;4959977;28;20445;-73
2022/07/16 08:15:29;;;;;;;9.50;4.78;;;28.70;90.60;;;;;;4969781;28;20410;-72
2022/07/16 08:17:55;;;;;;;6.80;4.78;;;28.60;91.20;;;;;;4964543;28;20038;-72
2022/07/16 08:20:21;;;;;;;7.75;4.45;;;29.00;90.40;;;;;;4968142;28;20389;-74
2022/07/16 08:22:46;;;;;;;8.68;4.50;;;29.00;90.00;;;;;;4965117;28;20034;-74
2022/07/16 08:27:56;;;;;;;6.82;4.43;;;29.30;90.40;;;;;;4975031;28;20040;-74
2022/07/16 08:30:22;;;;;;;7.18;4.22;;;29.20;89.20;;;;;;4970063;28;20034;-74
2022/07/16 08:32:48;;;;;;;9.02;5.03;;;29.00;89.90;;;;;;4965031;28;20597;-74
2022/07/16 08:35:14;;;;;;;9.13;4.65;;;29.10;88.80;;;;;;4967936;28;20041;-74
2022/07/16 08:37:42;;;;;;;6.00;4.28;;;29.20;88.60;;;;;;4966667;28;20501;-74
2022/07/16 08:40:11;;;;;;;7.03;4.57;;;29.10;88.40;;;;;;4961653;28;20038;-74
2022/07/16 08:42:37;;;;;;;7.25;4.70;;;29.30;89.80;;;;;;4966863;28;20047;-73
2022/07/16 08:45:05;;;;;;;7.25;4.65;;;29.40;89.40;;;;;;4948655;28;20454;-74
2022/07/16 08:47:32;;;;;;;7.65;4.45;;;29.60;89.50;;;;;;4966941;28;20559;-74
2022/07/16 08:49:59;;;;;;;5.20;3.95;;;29.50;89.00;;;;;;4969216;28;20027;-74
2022/07/16 08:52:27;;;;;;;7.57;4.85;;;29.80;88.00;;;;;;4968674;28;20121;-74
2022/07/16 08:54:54;;;;;;;5.32;3.80;;;29.70;88.10;;;;;;4964147;28;20041;-74
2022/07/16 08:57:21;;;;;;;11.48;4.75;;;29.90;88.80;;;;;;4964929;28;20038;-74
2022/07/16 08:59:47;;;;;;;10.35;4.60;;;29.80;88.00;;;;;;4965884;28;20081;-73
2022/07/16 09:02:13;;;;;;;6.72;4.10;;;29.70;87.20;;;;;;4963711;28;20051;-74
2022/07/16 09:04:39;;;;;;;7.03;3.97;;;29.60;87.40;;;;;;4959962;28;20041;-73
2022/07/16 09:07:05;;;;;;;6.78;4.63;;;29.40;87.00;;;;;;4957361;28;20035;-74
2022/07/16 09:09:31;;;;;;;8.30;4.07;;;29.80;87.00;;;;;;4962752;28;20075;-74
2022/07/16 09:11:56;;;;;;;8.07;4.70;;;29.50;86.80;;;;;;4964312;28;20097;-74
2022/07/16 09:14:22;;;;;;;7.88;4.03;;;29.30;87.00;;;;;;4968431;28;20031;-74
2022/07/16 09:16:52;;;;;;;12.52;4.53;;;29.80;87.00;;;;;;4952805;28;20701;-74
2022/07/16 09:19:23;;;;;;;8.27;4.50;;;30.20;86.40;;;;;;4956070;28;20031;-74
2022/07/16 09:22:01;;;;;;;6.25;4.35;;;30.30;85.30;;;;;;4963392;28;20046;-74
2022/07/16 09:24:41;;;;;;;6.25;4.18;;;30.30;84.10;;;;;;4956903;28;20042;-74
2022/07/16 09:27:21;;;;;;;5.50;3.97;;;30.30;85.40;;;;;;4963598;28;20050;-74
2022/07/16 09:29:51;;;;;;;7.68;4.13;;;30.70;86.30;;;;;;4967917;28;20526;-74
2022/07/16 09:32:29;;;;;;;6.70;4.47;;;30.90;84.30;;;;;;4962115;28;20027;-74
2022/07/16 09:35:11;;;;;;;5.85;4.10;;;30.40;83.70;;;;;;4963254;28;20114;-74
2022/07/16 09:37:57;;;;;;;9.20;4.80;;;30.80;85.00;;;;;;4968217;28;20524;-74
2022/07/16 09:40:35;;;;;;;6.50;4.15;;;30.90;85.80;;;;;;4964221;28;20153;-74
2022/07/16 09:43:03;;;;;;;10.10;4.07;;;31.00;84.10;;;;;;4965061;28;20042;-74
2022/07/16 09:45:29;;;;;;;7.00;4.13;;;31.00;83.80;;;;;;4967405;28;20035;-74
2022/07/16 09:47:55;;;;;;;5.57;4.28;;;31.20;84.70;;;;;;4968514;28;20039;-74
2022/07/16 09:50:21;;;;;;;6.72;4.28;;;31.00;84.10;;;;;;4965391;28;20030;-74
2022/07/16 09:52:47;;;;;;;6.82;4.50;;;30.80;84.40;;;;;;4966390;28;20034;-74
2022/07/16 09:55:13;;;;;;;5.28;4.40;;;30.90;84.00;;;;;;4963975;28;20062;-74
2022/07/16 09:57:42;;;;;;;7.72;4.10;;;31.00;83.60;;;;;;4967748;28;20062;-74
2022/07/16 10:00:11;;;;;;;7.20;4.38;;;31.20;83.30;;;;;;4965744;28;20114;-74
2022/07/16 10:02:36;;;;;;;7.18;4.35;;;31.10;83.90;;;;;;4965290;28;20461;-74
2022/07/16 10:05:02;;;;;;;6.32;3.65;;;31.10;84.10;;;;;;4967199;28;20035;-74
2022/07/16 10:07:28;;;;;;;6.35;4.00;;;31.50;83.40;;;;;;4966058;28;20489;-74
2022/07/16 10:09:53;;;;;;;7.35;4.28;;;31.50;82.60;;;;;;4957362;28;20046;-74
2022/07/16 10:12:20;;;;;;;4.90;3.50;;;31.70;82.70;;;;;;4965339;28;20046;-72
2022/07/16 10:14:54;;;;;;;10.10;4.43;;;31.80;82.70;;;;;;4960127;28;20481;-74
2022/07/16 10:17:29;;;;;;;6.10;4.72;;;31.90;83.80;;;;;;4964311;28;20675;-72
2022/07/16 10:20:05;;;;;;;5.43;3.95;;;31.90;82.80;;;;;;4961462;28;20042;-72
2022/07/16 10:22:36;;;;;;;6.97;4.28;;;31.90;82.80;;;;;;4966422;28;20034;-73
2022/07/16 10:25:30;;;;;;;7.93;4.30;;;31.70;82.20;;;;;;4966724;28;20464;-72
2022/07/16 10:27:56;;;;;;;6.95;3.85;;;31.80;81.70;;;;;;4963212;28;20039;-72
2022/07/16 10:30:21;;;;;;;7.43;3.97;;;32.40;82.50;;;;;;4967145;28;20031;-73
2022/07/16 10:32:59;;;;;;;5.65;3.25;;;32.50;83.30;;;;;;4970172;28;20039;-72
2022/07/16 10:35:45;;;;;;;5.18;3.65;;;32.70;82.40;;;;;;4966636;28;20090;-73
2022/07/16 10:38:16;;;;;;;9.90;3.80;;;32.70;81.60;;;;;;4965996;28;20031;-73
2022/07/16 10:40:43;;;;;;;5.30;3.88;;;32.50;82.20;;;;;;4967350;28;20033;-73
2022/07/16 10:43:13;;;;;;;5.35;3.47;;;32.60;81.90;;;;;;4964253;28;20689;-72
2022/07/16 10:45:59;;;;;;;7.70;4.65;;;32.80;80.30;;;;;;4968949;28;20383;-72
2022/07/16 10:48:30;;;;;;;6.07;3.92;;;32.80;79.70;;;;;;4957999;28;20469;-72
2022/07/16 10:51:23;;;;;;;7.10;4.00;;;33.10;80.00;;;;;;4969186;28;20369;-73
2022/07/16 10:53:57;;;;;;;6.55;4.15;;;33.20;80.00;;;;;;4968182;28;20137;-73
2022/07/16 10:56:47;;;;;;;7.40;4.28;;;33.20;79.90;;;;;;4965140;28;21003;-72
2022/07/16 10:59:22;;;;;;;5.40;3.88;;;33.30;78.80;;;;;;4966359;28;20035;-72
2022/07/16 11:01:53;;;;;;;8.82;3.80;;;33.40;78.50;;;;;;4964765;28;20073;-72
2022/07/16 11:04:29;;;;;;;8.77;4.35;;;33.50;78.80;;;;;;4959200;28;20109;-74
2022/07/16 11:06:55;;;;;;;5.97;3.78;;;33.80;78.00;;;;;;4958285;28;20418;-74
2022/07/16 11:09:33;;;;;;;5.45;3.42;;;34.00;77.50;;;;;;4961822;28;20031;-72
2022/07/16 11:12:17;;;;;;;6.80;3.90;;;33.90;78.40;;;;;;4956221;28;20113;-74
2022/07/16 11:14:46;;;;;;;6.45;3.60;;;33.80;78.70;;;;;;4953563;28;20031;-73
2022/07/16 11:17:13;;;;;;;5.40;3.95;;;34.00;78.60;;;;;;4955870;28;20478;-73
2022/07/16 11:19:41;;;;;;;6.63;3.28;;;34.00;77.20;;;;;;4957710;28;20027;-72
2022/07/16 11:22:08;;;;;;;6.40;3.58;;;34.00;78.10;;;;;;4958270;28;20509;-72
2022/07/16 11:24:34;;;;;;;5.55;3.85;;;34.00;76.80;;;;;;4959091;28;20114;-73
2022/07/16 11:27:01;;;;;;;4.97;3.53;;;34.20;77.10;;;;;;4962521;28;20030;-74
2022/07/16 11:29:28;;;;;;;5.47;3.88;;;34.50;75.90;;;;;;4961474;28;20034;-74
2022/07/16 11:31:55;;;;;;;8.80;4.57;;;34.30;76.60;;;;;;4957244;28;20056;-73
2022/07/16 11:34:22;;;;;;;11.30;3.72;;;34.40;76.70;;;;;;4957638;28;20554;-74
2022/07/16 11:36:51;;;;;;;4.60;3.30;;;34.40;76.30;;;;;;4957224;28;20062;-73
2022/07/16 11:39:22;;;;;;;9.18;3.88;;;34.40;76.40;;;;;;4957392;28;20419;-74
2022/07/16 11:41:50;;;;;;;11.90;3.80;;;34.30;76.50;;;;;;4959385;28;20046;-74
2022/07/16 11:44:37;;;;;;;7.10;4.07;;;34.50;75.20;;;;;;4956249;28;20035;-76
2022/07/16 11:47:06;;;;;;;4.75;3.53;;;34.40;75.80;;;;;;4960407;28;20023;-75
2022/07/16 11:49:32;;;;;;;5.43;3.92;;;34.40;75.50;;;;;;4961655;28;20046;-74
2022/07/16 11:52:00;;;;;;;6.30;3.50;;;34.30;75.80;;;;;;4961035;28;20639;-78
2022/07/16 11:54:29;;;;;;;7.07;3.80;;;34.50;75.00;;;;;;4961634;28;20031;-77
2022/07/16 11:56:56;;;;;;;5.10;3.60;;;34.60;75.50;;;;;;4960769;28;20030;-76
2022/07/16 11:59:24;;;;;;;5.95;3.38;;;34.70;75.40;;;;;;4960933;28;20034;-77
2022/07/16 12:02:04;;;;;;;5.80;3.88;;;34.50;75.60;;;;;;4962926;28;20090;-77
2022/07/16 12:04:51;;;;;;;10.05;4.03;;;34.30;74.70;;;;;;4962667;28;20054;-77
2022/07/16 12:07:24;;;;;;;5.85;3.80;;;34.60;75.00;;;;;;4952848;28;20032;-76
2022/07/16 12:09:52;;;;;;;8.70;3.70;;;34.80;74.60;;;;;;4953710;28;20397;-78
2022/07/16 12:12:19;;;;;;;6.40;3.33;;;35.00;74.70;;;;;;4952363;28;20380;-78
2022/07/16 12:14:50;;;;;;;21.67;4.68;;;34.90;74.30;;;;;;4958868;28;20142;-78
2022/07/16 12:17:23;;;;;;;7.32;3.63;;;35.20;74.50;;;;;;4962614;28;20071;-78
2022/07/16 12:20:19;;;;;;;9.40;3.80;;;35.10;74.40;;;;;;4955500;28;20023;-77
2022/07/16 12:22:47;;;;;;;4.80;3.35;;;35.30;72.90;;;;;;4955603;28;20049;-77
2022/07/16 12:25:28;;;;;;;4.95;3.83;;;35.20;73.80;;;;;;4959362;28;20038;-77
2022/07/16 12:28:06;;;;;;;7.88;3.42;;;35.00;73.10;;;;;;4951849;28;20543;-78
2022/07/16 12:30:42;;;;;;;10.40;3.13;;;35.10;73.10;;;;;;4962012;28;20056;-78
2022/07/16 12:33:20;;;;;;;7.32;3.38;;;34.90;73.60;;;;;;4972735;28;20035;-78
2022/07/16 12:35:47;;;;;;;5.03;3.70;;;35.00;73.00;;;;;;4958100;28;20035;-78
2022/07/16 12:38:58;;;;;;;4.85;3.58;;;34.80;73.80;;;;;;4964684;28;20521;-77
2022/07/16 12:41:42;;;;;;;4.53;2.95;;;35.10;74.00;;;;;;4959110;28;20038;-77
2022/07/16 12:44:18;;;;;;;7.50;3.45;;;35.40;72.40;;;;;;4956344;28;20041;-77
2022/07/16 12:46:50;;;;;;;5.72;3.35;;;35.10;74.00;;;;;;4959628;28;20047;-77
2022/07/16 12:49:21;;;;;;;4.10;3.05;;;35.30;72.90;;;;;;4962760;28;20031;-77
2022/07/16 12:51:49;;;;;;;6.10;3.45;;;35.50;73.40;;;;;;4959777;28;20062;-77
2022/07/16 12:54:16;;;;;;;6.13;3.97;;;35.40;72.70;;;;;;4964323;28;20109;-77
2022/07/16 12:59:28;;;;;;;4.70;3.30;;;35.20;72.80;;;;;;4960963;28;20702;-78
2022/07/16 13:01:55;;;;;;;5.30;3.00;;;35.10;73.00;;;;;;4965003;28;20541;-76